AirNav   TITAN Aviation Fuels
 
 1075 users online  

18MD Medstar Montgomery Medical Center Heliport
Olney, Maryland, USA

GOING TO OLNEY?


FAA INFORMATION EFFECTIVE 16 JUNE 2022

Location

FAA Identifier: 18MD
Lat/Long: 39-09-17.0180N 077-03-18.0015W
39-09.283633N 077-03.300025W
39.1547272,-77.0550004
(estimated)
Elevation: 486 ft. / 148 m (estimated)
From city: 2 miles W of OLNEY, MD
Time zone: UTC -4 (UTC -5 during Standard Time)
Zip code: 20832

Heliport Operations

Heliport use: Private use. Permission required prior to landing
Activation date: 11/2009
Control tower: no
ARTCC: WASHINGTON CENTER
FSS: LEESBURG FLIGHT SERVICE STATION
Attendance: UNATNDD
Wind indicator: yes
Segmented circle: no
Lights: SS-SR

Heliport Communications

WX AWOS-3PT at GAI (5 nm W): 128.275 (301-977-2971)
WX AWOS-3 at CGS (12 nm SE): 121.225 (301-864-5497)
WX AWOS-3 at FME (14 nm E): 123.925
WX ASOS at BWI (18 nm E): PHONE 410-691-1278
WX ASOS at DCA (18 nm S): 132.65 (703-418-1177)

Heliport Services

Runway Information

Helipad H1

Dimensions: 40 x 40 ft. / 12 x 12 m
Surface: concrete
Runway edge lights: PERI
Latitude: 39-09.283633N
Longitude: 077-03.300025W
Elevation: 486.0 ft.
Traffic pattern: leftleft
Obstructions: bldg
50 FT BUILDING 200 FT S OF PAD; 40 FT TREES 100 FT N OF PAD.

Heliport Ownership and Management from official FAA records

Ownership: Privately-owned
Owner: MEDSTAR MONTGOMERY MEDICAL CENTER
18101 PRINCE PHILLIP DR
OLNEY, MD 20832
Phone 301-774-8858
Manager: KEVIN MELL
18101 PRINCE PHILLIP DR
OLNEY, MD 20832
Phone (301) 570-8500
EXT: 8773.

Additional Remarks

FOR CD CTC POTOMAC APCH AT 866-429-5882.

Instrument Procedures

There are no published instrument procedures at 18MD.

Some nearby airports with instrument procedures:

KGAI - Montgomery County Airpark (5 nm W)
W50 - Davis Airport (7 nm NW)
KCGS - College Park Airport (12 nm SE)
KFME - Tipton Airport (14 nm E)
KBWI - Baltimore/Washington International Thurgood Marshall Airport (18 nm E)
KDCA - Ronald Reagan Washington National Airport (18 nm S)
W00 - Freeway Airport (18 nm SE)
2W2 - Clearview Airpark (19 nm N)
 
Loc | Ops | Rwys | IFR | FBO | Links
Com | Nav | Svcs | Stats | Notes
Aerial photo
No photo
 
Sectional chart

 
Airport distance calculator
Flying to Medstar Montgomery Medical Center Heliport? Find the distance to fly.

From to 18MD

Sunrise and sunset
Times for 02-Jul-2022
 Local
(UTC-4)
 Zulu
(UTC)
Morning civil twilight05:1509:15
Sunrise05:4709:47
Sunset20:3700:37
Evening civil twilight21:0901:09

Current date and time
Zulu (UTC)  02-Jul-2022 15:24:31
Local (UTC-4)  02-Jul-2022 11:24:31
 
METAR
KGAI 
5nm W 
021456Z AUTO 00000KT 10SM CLR 28/22 A2999 RMK AO2 SLP163 T02780217 58001
KCGS 
12nm SE 
021438Z AUTO 26003KT 10SM CLR 28/27 A2996 RMK AO1 T02800268
KFME 
14nm E 
021439Z AUTO 26005KT 10SM CLR 28/23 A2999 RMK AO1
KBWI 
17nm E 
021454Z VRB05KT 10SM FEW020 FEW140 BKN220 BKN250 32/22 A2995 RMK AO2 SLP140 T03170217 55001
KDCA 
18nm S 
021452Z 17009KT 10SM BKN150 BKN250 28/22 A2997 RMK AO2 SLP148 T02830222 55002 $
TAF
KBWI 
17nm E 
021125Z 0212/0318 23008G16KT P6SM VCSH FEW050 BKN130 FM021900 21008G16KT P6SM -SHRA VCTS BKN050CB BKN130 FM030000 VRB04KT 6SM -SHRA BKN050 BKN130 FM030300 VRB03KT 5SM BR BKN050 BKN130 FM030900 34005KT P6SM SCT050 BKN130
KDCA 
18nm S 
021125Z 0212/0318 19008G16KT P6SM BKN130 FM021300 22008G16KT P6SM VCSH FEW050 BKN130 FM021900 21008G16KT P6SM -SHRA VCTS BKN050CB BKN130 FM030000 VRB04KT 6SM -SHRA BKN050 BKN130 FM030400 VRB03KT 6SM BR BKN050 BKN130 FM031000 35005KT P6SM SCT050 BKN130
NOTAMs
Click for the latest NOTAMs
NOTAMs are issued by the DoD/FAA and will open in a separate window not controlled by AirNav.

 

 
 

Would you like to see your business listed on this page?

 If your business provides an interesting product or service to pilots, flight crews, aircraft, or users of the Medstar Montgomery Medical Center Heliport, you should consider listing it here.  To start the listing process, click on the button below
 
Add a business
 

Other Pages about Medstar Montgomery Medical Center Heliport

Update a link
 
Copyright © AirNav, LLC. All rights reserved. Privacy Policy  Contact